createdAt,value
2016-11-05T00:00:12.493Z,18.80
2016-11-05T00:01:13.614Z,18.80
2016-11-05T00:02:13.223Z,18.80
2016-11-05T00:03:12.394Z,18.80
2016-11-05T00:04:13.238Z,18.80
2016-11-05T00:05:10.623Z,18.80
2016-11-05T00:06:09.902Z,18.80
2016-11-05T00:07:12.433Z,18.80
2016-11-05T00:08:13.379Z,18.80
2016-11-05T00:09:12.799Z,18.80
2016-11-05T00:10:13.551Z,18.80
2016-11-05T00:11:12.246Z,18.80
2016-11-05T00:12:13.408Z,18.80
2016-11-05T00:13:13.086Z,18.80
2016-11-05T00:14:13.094Z,18.80
2016-11-05T00:15:12.524Z,18.80
2016-11-05T00:16:10.354Z,18.80
2016-11-05T00:17:12.282Z,18.80
2016-11-05T00:18:11.978Z,18.80
2016-11-05T00:19:13.197Z,18.80
2016-11-05T00:20:12.779Z,18.80
2016-11-05T00:21:13.206Z,18.80
2016-11-05T00:22:12.768Z,18.80
2016-11-05T00:23:13.253Z,18.80
2016-11-05T00:24:12.266Z,18.80
2016-11-05T00:25:10.244Z,18.80
2016-11-05T00:26:12.769Z,18.80
2016-11-05T00:27:12.317Z,18.80
2016-11-05T00:28:12.222Z,18.80
2016-11-05T00:29:12.732Z,18.80
2016-11-05T00:30:12.068Z,18.80
2016-11-05T00:31:13.313Z,18.80
2016-11-05T00:32:13.145Z,18.80
2016-11-05T00:33:12.433Z,18.80
2016-11-05T00:34:13.535Z,18.80
2016-11-05T00:35:13.066Z,18.80
2016-11-05T00:36:18.006Z,18.80
2016-11-05T00:37:11.948Z,18.80
2016-11-05T00:38:12.773Z,18.80
2016-11-05T00:39:10.309Z,18.80
2016-11-05T00:40:11.647Z,18.80
2016-11-05T00:41:09.220Z,18.80
2016-11-05T00:42:12.318Z,18.80
2016-11-05T00:43:12.298Z,18.80
2016-11-05T00:44:12.992Z,18.80
2016-11-05T00:45:12.990Z,18.80
2016-11-05T00:46:12.106Z,18.80
2016-11-05T00:47:12.760Z,18.80
2016-11-05T00:48:12.328Z,18.80
2016-11-05T00:49:11.010Z,18.80
2016-11-05T00:50:12.978Z,18.80
2016-11-05T00:51:08.935Z,18.80
2016-11-05T00:52:12.920Z,18.80
2016-11-05T00:53:09.960Z,18.80
2016-11-05T00:54:12.668Z,18.80
2016-11-05T00:55:12.854Z,18.80
2016-11-05T00:56:13.780Z,18.80
2016-11-05T00:57:11.911Z,18.80
2016-11-05T00:58:12.082Z,18.80
2016-11-05T00:59:13.013Z,18.80
2016-11-05T01:00:12.168Z,18.80
2016-11-05T01:01:13.442Z,18.80
2016-11-05T01:02:12.254Z,18.80
2016-11-05T01:03:12.328Z,18.80
2016-11-05T01:04:12.632Z,18.80
2016-11-05T01:05:12.608Z,18.80
2016-11-05T01:06:14.587Z,18.80
2016-11-05T01:07:14.947Z,18.80
2016-11-05T01:08:12.284Z,18.80
2016-11-05T01:09:12.023Z,18.80
2016-11-05T01:10:12.238Z,18.80
2016-11-05T01:11:14.087Z,18.80
2016-11-05T01:12:12.273Z,18.80
2016-11-05T01:13:12.013Z,18.80
2016-11-05T01:14:13.844Z,18.80
2016-11-05T01:15:12.095Z,18.80
2016-11-05T01:16:12.614Z,18.80
2016-11-05T01:17:12.627Z,18.80
2016-11-05T01:18:13.434Z,18.80
2016-11-05T01:19:12.433Z,18.80
2016-11-05T01:20:13.285Z,18.80
2016-11-05T01:21:13.579Z,18.80
2016-11-05T01:22:13.253Z,18.80
2016-11-05T01:23:09.449Z,18.80
2016-11-05T01:24:14.889Z,18.80
2016-11-05T01:25:12.386Z,18.80
2016-11-05T01:26:14.577Z,18.80
2016-11-05T01:27:13.040Z,18.80
2016-11-05T01:28:12.954Z,18.80
2016-11-05T01:29:10.689Z,18.80
2016-11-05T01:30:13.227Z,18.80
2016-11-05T01:31:12.913Z,18.80
2016-11-05T01:32:12.356Z,18.80
2016-11-05T01:33:12.970Z,18.80
2016-11-05T01:34:12.219Z,18.80
2016-11-05T01:35:13.562Z,18.80
2016-11-05T01:36:13.738Z,18.80
2016-11-05T01:37:09.600Z,18.80
2016-11-05T01:38:15.051Z,18.80
2016-11-05T01:39:13.685Z,18.80
2016-11-05T01:40:12.928Z,18.80
2016-11-05T01:41:14.311Z,18.80
2016-11-05T01:42:14.443Z,18.80
2016-11-05T01:43:14.440Z,18.80
2016-11-05T01:44:12.154Z,18.80
2016-11-05T01:45:12.414Z,18.80
2016-11-05T01:46:13.188Z,18.80
2016-11-05T01:47:13.187Z,18.80
2016-11-05T01:48:13.579Z,18.80
2016-11-05T01:49:14.426Z,18.80
2016-11-05T01:50:13.173Z,18.80
2016-11-05T01:51:13.381Z,18.80
2016-11-05T01:52:10.513Z,18.80
2016-11-05T01:53:13.695Z,18.80
2016-11-05T01:54:12.841Z,18.80
2016-11-05T01:55:12.660Z,18.80
2016-11-05T01:56:13.163Z,18.80
2016-11-05T01:57:12.359Z,18.80
2016-11-05T01:58:13.225Z,18.80
2016-11-05T01:59:11.687Z,18.80
2016-11-05T02:00:14.626Z,18.80
2016-11-05T02:01:14.814Z,18.80
2016-11-05T02:02:13.609Z,18.80
2016-11-05T02:03:13.333Z,18.80
2016-11-05T02:04:13.393Z,18.80
2016-11-05T02:05:13.684Z,18.80
2016-11-05T02:06:13.740Z,18.80
2016-11-05T02:07:11.943Z,18.80
2016-11-05T02:08:12.243Z,18.80
2016-11-05T02:09:13.137Z,18.80
2016-11-05T02:10:14.740Z,18.80
2016-11-05T02:11:12.563Z,18.80
2016-11-05T02:12:14.186Z,18.80
2016-11-05T02:13:12.303Z,18.80
2016-11-05T02:14:13.229Z,18.80
2016-11-05T02:15:13.216Z,18.80
2016-11-05T02:16:12.763Z,18.80
2016-11-05T02:17:12.555Z,18.80
2016-11-05T02:18:14.626Z,18.80
2016-11-05T02:19:15.634Z,18.80
2016-11-05T02:20:14.081Z,18.80
2016-11-05T02:21:15.580Z,18.80
2016-11-05T02:22:14.152Z,18.80
2016-11-05T02:23:12.204Z,18.80
2016-11-05T02:24:13.472Z,18.80
2016-11-05T02:25:12.906Z,18.80
2016-11-05T02:26:12.472Z,18.80
2016-11-05T02:27:13.326Z,18.80
2016-11-05T02:28:12.093Z,18.80
2016-11-05T02:29:11.895Z,18.80
2016-11-05T02:30:13.539Z,18.80
2016-11-05T02:31:14.710Z,18.80
2016-11-05T02:32:12.109Z,18.80
2016-11-05T02:33:13.082Z,18.80
2016-11-05T02:34:12.471Z,18.80
2016-11-05T02:35:11.032Z,18.80
2016-11-05T02:36:12.167Z,18.80
2016-11-05T02:37:13.204Z,18.80
2016-11-05T02:38:11.816Z,18.80
2016-11-05T02:39:10.241Z,18.80
2016-11-05T02:40:13.766Z,18.80
2016-11-05T02:41:09.539Z,18.80
2016-11-05T02:42:13.252Z,18.80
2016-11-05T02:43:12.802Z,18.80
2016-11-05T02:44:12.145Z,18.80
2016-11-05T02:45:10.761Z,18.80
2016-11-05T02:46:11.819Z,18.80
2016-11-05T02:47:12.384Z,18.80
2016-11-05T02:48:13.145Z,18.80
2016-11-05T02:49:14.228Z,18.80
2016-11-05T02:50:09.673Z,18.80
2016-11-05T02:51:12.470Z,18.80
2016-11-05T02:52:12.470Z,18.80
2016-11-05T02:53:13.296Z,18.80
2016-11-05T02:54:12.146Z,18.80
2016-11-05T02:55:12.840Z,18.80
2016-11-05T02:56:09.788Z,18.80
2016-11-05T02:57:13.129Z,18.80
2016-11-05T02:58:11.061Z,18.80
2016-11-05T02:59:13.047Z,18.80
2016-11-05T03:00:13.147Z,18.80
2016-11-05T03:01:11.866Z,18.80
2016-11-05T03:02:09.723Z,18.80
2016-11-05T03:03:12.726Z,18.80
2016-11-05T03:04:13.218Z,18.80
2016-11-05T03:05:12.740Z,18.80
2016-11-05T03:06:12.640Z,18.80
2016-11-05T03:07:13.593Z,18.80
2016-11-05T03:08:10.540Z,18.80
2016-11-05T03:09:09.710Z,18.80
2016-11-05T03:10:13.799Z,18.80
2016-11-05T03:11:13.074Z,18.80
2016-11-05T03:12:13.017Z,18.80
2016-11-05T03:13:11.523Z,18.80
2016-11-05T03:14:13.296Z,18.80
2016-11-05T03:15:10.163Z,18.80
2016-11-05T03:16:13.142Z,18.80
2016-11-05T03:17:14.075Z,18.80
2016-11-05T03:18:12.192Z,18.80
2016-11-05T03:19:12.417Z,18.80
2016-11-05T03:20:13.130Z,18.80
2016-11-05T03:21:12.417Z,18.80
2016-11-05T03:22:12.120Z,18.80
2016-11-05T03:23:10.160Z,18.80
2016-11-05T03:24:12.852Z,18.80
2016-11-05T03:25:12.834Z,18.80
2016-11-05T03:26:10.651Z,18.80
2016-11-05T03:27:11.423Z,18.80
2016-11-05T03:28:13.597Z,18.80
2016-11-05T03:29:13.065Z,18.80
2016-11-05T03:30:12.560Z,18.80
2016-11-05T03:31:09.501Z,18.80
2016-11-05T03:32:13.025Z,18.80
2016-11-05T03:33:12.135Z,18.80
2016-11-05T03:34:13.369Z,18.80
2016-11-05T03:35:11.802Z,18.80
2016-11-05T03:36:13.440Z,18.80
2016-11-05T03:37:10.002Z,18.80
2016-11-05T03:38:12.094Z,18.80
2016-11-05T03:39:12.904Z,18.80
2016-11-05T03:40:13.168Z,18.80
2016-11-05T03:41:13.275Z,18.80
2016-11-05T03:42:13.501Z,18.80
2016-11-05T03:43:12.296Z,18.80
2016-11-05T03:44:13.093Z,18.80
2016-11-05T03:45:11.502Z,18.80
2016-11-05T03:46:09.730Z,18.80
2016-11-05T03:47:14.986Z,18.80
2016-11-05T03:48:13.054Z,18.80
2016-11-05T03:49:13.130Z,18.80
2016-11-05T03:50:12.813Z,18.80
2016-11-05T03:51:12.426Z,18.80
2016-11-05T03:52:11.572Z,18.80
2016-11-05T03:53:12.252Z,18.80
2016-11-05T03:54:11.261Z,18.80
2016-11-05T03:55:13.335Z,18.80
2016-11-05T03:56:13.582Z,18.80
2016-11-05T03:57:09.987Z,18.80
2016-11-05T03:58:10.895Z,18.80
2016-11-05T03:59:12.696Z,18.80
2016-11-05T04:00:11.939Z,18.80
2016-11-05T04:01:11.982Z,18.80
2016-11-05T04:02:13.402Z,18.80
2016-11-05T04:03:12.767Z,18.80
2016-11-05T04:04:12.639Z,18.80
2016-11-05T04:05:12.945Z,18.80
2016-11-05T04:06:12.983Z,18.80
2016-11-05T04:07:13.444Z,18.80
2016-11-05T04:08:09.049Z,18.80
2016-11-05T04:09:13.503Z,18.80
2016-11-05T04:10:13.445Z,18.80
2016-11-05T04:11:10.190Z,18.80
2016-11-05T04:12:12.174Z,18.80
2016-11-05T04:13:11.728Z,18.80
2016-11-05T04:14:13.161Z,18.80
2016-11-05T04:15:19.105Z,18.80
2016-11-05T04:16:11.538Z,18.80
2016-11-05T04:17:10.866Z,18.80
2016-11-05T04:18:12.115Z,18.80
2016-11-05T04:19:12.906Z,18.80
2016-11-05T04:20:11.836Z,18.80
2016-11-05T04:21:13.072Z,18.80
2016-11-05T04:22:12.592Z,18.80
2016-11-05T04:23:12.850Z,18.80
2016-11-05T04:24:13.347Z,18.80
2016-11-05T04:25:14.444Z,18.80
2016-11-05T04:26:13.023Z,18.80
2016-11-05T04:27:12.309Z,18.80
2016-11-05T04:28:12.233Z,18.80
2016-11-05T04:29:13.710Z,18.80
2016-11-05T04:30:09.641Z,18.80
2016-11-05T04:31:09.411Z,18.80
2016-11-05T04:32:12.853Z,18.80
2016-11-05T04:33:12.797Z,18.80
2016-11-05T04:34:11.182Z,18.80
2016-11-05T04:35:12.488Z,18.80
2016-11-05T04:36:12.206Z,18.80
2016-11-05T04:37:12.003Z,18.80
2016-11-05T04:38:12.863Z,18.80
2016-11-05T04:39:12.309Z,18.80
2016-11-05T04:40:12.907Z,18.80
2016-11-05T04:41:13.019Z,18.80
2016-11-05T04:42:12.411Z,18.80
2016-11-05T04:43:12.304Z,18.80
2016-11-05T04:44:12.832Z,18.80
2016-11-05T04:45:12.451Z,18.80
2016-11-05T04:46:12.719Z,18.80
2016-11-05T04:47:12.766Z,18.80
2016-11-05T04:48:12.394Z,18.80
2016-11-05T04:49:09.808Z,18.80
2016-11-05T04:50:11.908Z,18.80
2016-11-05T04:51:12.703Z,18.80
2016-11-05T04:52:12.077Z,18.80
2016-11-05T04:53:12.297Z,18.80
2016-11-05T04:54:13.018Z,18.80
2016-11-05T04:55:11.597Z,18.80
2016-11-05T04:56:13.533Z,18.80
2016-11-05T04:57:13.646Z,18.80
2016-11-05T04:58:13.730Z,18.80
2016-11-05T04:59:14.621Z,18.80
2016-11-05T05:00:12.337Z,18.80
2016-11-05T05:01:12.828Z,18.80
2016-11-05T05:02:12.148Z,18.80
2016-11-05T05:03:09.589Z,18.80
2016-11-05T05:04:11.574Z,18.80
2016-11-05T05:05:12.416Z,18.80
2016-11-05T05:06:12.889Z,18.80
2016-11-05T05:07:12.546Z,18.80
2016-11-05T05:08:12.667Z,18.80
2016-11-05T05:09:12.362Z,18.80
2016-11-05T05:10:11.875Z,18.80
2016-11-05T05:11:12.035Z,18.80
2016-11-05T05:12:09.969Z,18.80
2016-11-05T05:13:12.518Z,18.80
2016-11-05T05:14:13.642Z,18.80
2016-11-05T05:15:13.571Z,18.80
2016-11-05T05:16:12.891Z,18.80
2016-11-05T05:17:12.417Z,18.80
2016-11-05T05:18:12.128Z,18.80
2016-11-05T05:19:15.369Z,18.80
2016-11-05T05:20:12.879Z,18.80
2016-11-05T05:21:09.537Z,18.80
2016-11-05T05:22:11.871Z,18.80
2016-11-05T05:23:12.047Z,18.80
2016-11-05T05:24:13.111Z,18.80
2016-11-05T05:25:18.732Z,18.80
2016-11-05T05:26:13.650Z,18.80
2016-11-05T05:27:12.153Z,18.80
2016-11-05T05:28:11.972Z,18.80
2016-11-05T05:29:12.256Z,18.80
2016-11-05T05:30:12.888Z,18.80
2016-11-05T05:31:11.652Z,18.80
2016-11-05T05:32:15.569Z,18.80
2016-11-05T05:33:11.771Z,18.80
2016-11-05T05:34:13.003Z,18.80
2016-11-05T05:35:12.175Z,18.80
2016-11-05T05:36:13.553Z,18.80
2016-11-05T05:37:09.247Z,18.80
2016-11-05T05:38:13.409Z,18.80
2016-11-05T05:39:17.138Z,18.80
2016-11-05T05:40:12.171Z,18.80
2016-11-05T05:41:08.778Z,18.80
2016-11-05T05:42:12.498Z,18.80
2016-11-05T05:43:10.659Z,18.80
2016-11-05T05:44:13.504Z,18.80
2016-11-05T05:45:12.917Z,18.80
2016-11-05T05:46:11.709Z,18.80
2016-11-05T05:47:11.627Z,18.80
2016-11-05T05:48:11.956Z,18.80
2016-11-05T05:49:12.878Z,18.80
2016-11-05T05:50:12.683Z,18.80
2016-11-05T05:51:09.114Z,18.80
2016-11-05T05:52:12.894Z,18.80
2016-11-05T05:53:11.598Z,18.80
2016-11-05T05:54:12.686Z,18.80
2016-11-05T05:55:12.551Z,18.80
2016-11-05T05:56:13.233Z,18.80
2016-11-05T05:57:12.778Z,18.80
2016-11-05T05:58:11.290Z,18.80
2016-11-05T05:59:13.229Z,18.80
2016-11-05T06:00:11.715Z,18.80
2016-11-05T06:01:12.333Z,18.80
2016-11-05T06:02:10.586Z,18.80
2016-11-05T06:03:12.027Z,18.80
2016-11-05T06:04:12.916Z,18.80
2016-11-05T06:05:11.318Z,18.80
2016-11-05T06:06:13.651Z,18.80
2016-11-05T06:07:12.424Z,18.80
2016-11-05T06:08:12.956Z,18.80
2016-11-05T06:09:11.732Z,18.80
2016-11-05T06:10:11.313Z,18.80
2016-11-05T06:11:12.422Z,18.80
2016-11-05T06:12:13.259Z,18.80
2016-11-05T06:13:12.021Z,18.80
2016-11-05T06:14:13.550Z,18.80
2016-11-05T06:15:11.360Z,18.80
2016-11-05T06:16:13.095Z,18.80
2016-11-05T06:17:14.842Z,18.80
2016-11-05T06:18:10.156Z,18.80
2016-11-05T06:19:11.812Z,18.80
2016-11-05T06:20:13.056Z,18.70
2016-11-05T06:21:12.936Z,18.80
2016-11-05T06:22:11.708Z,18.80
2016-11-05T06:23:10.371Z,18.80
2016-11-05T06:24:14.033Z,18.80
2016-11-05T06:25:12.450Z,18.80
2016-11-05T06:26:11.992Z,18.80
2016-11-05T06:27:12.024Z,18.80
2016-11-05T06:28:13.036Z,18.80
2016-11-05T06:29:12.915Z,18.80
2016-11-05T06:30:09.728Z,18.80
2016-11-05T06:31:12.373Z,18.80
2016-11-05T06:32:12.605Z,18.80
2016-11-05T06:33:12.678Z,18.80
2016-11-05T06:34:13.328Z,18.80
2016-11-05T06:35:12.678Z,18.80
2016-11-05T06:36:09.892Z,18.80
2016-11-05T06:37:12.673Z,18.80
2016-11-05T06:38:13.242Z,18.80
2016-11-05T06:39:11.890Z,18.80
2016-11-05T06:40:11.651Z,18.80
2016-11-05T06:41:12.206Z,18.80
2016-11-05T06:42:13.284Z,18.80
2016-11-05T06:43:16.411Z,18.80
2016-11-05T06:44:12.338Z,18.80
2016-11-05T06:45:09.705Z,18.80
2016-11-05T06:46:12.958Z,18.80
2016-11-05T06:47:12.044Z,18.80
2016-11-05T06:48:12.692Z,18.80
2016-11-05T06:49:12.110Z,18.80
2016-11-05T06:50:13.539Z,18.80
2016-11-05T06:51:12.058Z,18.80
2016-11-05T06:52:12.057Z,18.80
2016-11-05T06:53:13.247Z,18.80
2016-11-05T06:54:12.236Z,18.80
2016-11-05T06:55:12.324Z,18.80
2016-11-05T06:56:12.827Z,18.80
2016-11-05T06:57:12.982Z,18.80
2016-11-05T06:58:11.457Z,18.80
2016-11-05T06:59:12.013Z,18.80
2016-11-05T07:00:12.322Z,18.80
2016-11-05T07:01:12.864Z,18.80
2016-11-05T07:02:13.306Z,18.80
2016-11-05T07:03:12.479Z,18.80
2016-11-05T07:04:12.164Z,18.80
2016-11-05T07:05:13.016Z,18.80
2016-11-05T07:06:09.254Z,18.80
2016-11-05T07:07:11.860Z,18.80
2016-11-05T07:08:11.777Z,18.80
2016-11-05T07:09:12.818Z,18.80
2016-11-05T07:10:12.024Z,18.80
2016-11-05T07:11:12.708Z,18.80
2016-11-05T07:12:12.807Z,18.80
2016-11-05T07:13:10.526Z,18.80
2016-11-05T07:14:12.527Z,18.80
2016-11-05T07:15:09.308Z,18.80
2016-11-05T07:16:13.761Z,18.80
2016-11-05T07:17:10.353Z,18.80
2016-11-05T07:18:11.883Z,18.80
2016-11-05T07:19:12.862Z,18.80
2016-11-05T07:20:13.976Z,18.80
2016-11-05T07:21:15.939Z,18.80
2016-11-05T07:22:12.639Z,18.80
2016-11-05T07:23:10.065Z,18.80
2016-11-05T07:24:14.086Z,18.80
2016-11-05T07:25:12.240Z,18.80
2016-11-05T07:26:11.989Z,18.80
2016-11-05T07:27:09.789Z,18.80
2016-11-05T07:28:13.514Z,18.80
2016-11-05T07:29:08.764Z,18.80
2016-11-05T07:30:10.619Z,18.80
2016-11-05T07:31:08.390Z,18.80
2016-11-05T07:32:11.979Z,18.80
2016-11-05T07:33:13.380Z,18.80
2016-11-05T07:34:13.046Z,18.80
2016-11-05T07:35:13.538Z,18.80
2016-11-05T07:36:13.139Z,18.80
2016-11-05T07:37:08.702Z,18.80
2016-11-05T07:38:14.057Z,18.80
2016-11-05T07:39:11.428Z,18.80
2016-11-05T07:40:12.132Z,18.80
2016-11-05T07:41:13.219Z,18.80
2016-11-05T07:42:12.075Z,18.80
2016-11-05T07:43:12.082Z,18.80
2016-11-05T07:44:13.341Z,18.80
2016-11-05T07:45:14.534Z,18.80
2016-11-05T07:46:09.373Z,18.80
2016-11-05T07:47:11.512Z,18.80
2016-11-05T07:48:13.073Z,18.80
2016-11-05T07:49:14.352Z,18.80
2016-11-05T07:50:12.437Z,18.80
2016-11-05T07:51:12.213Z,18.80
2016-11-05T07:52:12.349Z,18.80
2016-11-05T07:53:12.476Z,18.80
2016-11-05T07:54:12.446Z,18.80
2016-11-05T07:55:11.744Z,18.80
2016-11-05T07:56:11.009Z,18.80
2016-11-05T07:57:08.681Z,18.80
2016-11-05T07:58:11.864Z,18.80
2016-11-05T07:59:12.974Z,18.80
2016-11-05T08:00:12.509Z,18.80
2016-11-05T08:01:12.803Z,18.80
2016-11-05T08:02:11.826Z,18.80
2016-11-05T08:03:13.335Z,18.80
2016-11-05T08:04:12.726Z,18.80
2016-11-05T08:05:12.009Z,18.80
2016-11-05T08:06:12.202Z,18.70
2016-11-05T08:07:12.263Z,18.70
2016-11-05T08:08:11.883Z,18.80
2016-11-05T08:09:09.879Z,18.70
2016-11-05T08:10:12.262Z,18.70
2016-11-05T08:11:13.793Z,18.70
2016-11-05T08:12:12.277Z,18.70
2016-11-05T08:13:12.663Z,18.70
2016-11-05T08:14:12.124Z,18.70
2016-11-05T08:15:11.772Z,18.50
2016-11-05T08:16:11.773Z,18.30
2016-11-05T08:17:12.108Z,18.00
2016-11-05T08:18:14.850Z,17.70
2016-11-05T08:19:12.822Z,17.30
2016-11-05T08:20:11.900Z,17.20
2016-11-05T08:21:12.291Z,17.20
2016-11-05T08:22:11.814Z,17.30
2016-11-05T08:23:12.312Z,17.40
2016-11-05T08:24:15.968Z,17.50
2016-11-05T08:25:15.580Z,17.70
2016-11-05T08:26:12.473Z,17.80
2016-11-05T08:27:12.633Z,17.90
2016-11-05T08:28:12.388Z,17.90
2016-11-05T08:29:13.059Z,18.00
2016-11-05T08:30:12.789Z,18.10
2016-11-05T08:31:12.357Z,18.20
2016-11-05T08:32:12.335Z,18.20
2016-11-05T08:33:09.560Z,18.20
2016-11-05T08:34:11.819Z,18.30
2016-11-05T08:35:10.097Z,18.30
2016-11-05T08:36:12.374Z,18.30
2016-11-05T08:37:12.757Z,18.40
2016-11-05T08:38:13.036Z,18.40
2016-11-05T08:39:12.775Z,18.40
2016-11-05T08:40:12.357Z,18.40
2016-11-05T08:41:14.664Z,18.50
2016-11-05T08:42:12.083Z,18.50
2016-11-05T08:43:12.565Z,18.50
2016-11-05T08:44:12.435Z,18.50
2016-11-05T08:45:11.248Z,18.50
2016-11-05T08:46:12.825Z,18.50
2016-11-05T08:47:12.196Z,18.50
2016-11-05T08:48:12.612Z,18.50
2016-11-05T08:49:10.617Z,18.50
2016-11-05T08:50:12.113Z,18.50
2016-11-05T08:51:12.602Z,18.50
2016-11-05T08:52:13.039Z,18.60
2016-11-05T08:53:12.500Z,18.50
2016-11-05T08:54:11.943Z,18.60
2016-11-05T08:55:12.394Z,18.60
2016-11-05T08:56:11.627Z,18.60
2016-11-05T08:57:12.285Z,18.60
2016-11-05T08:58:13.640Z,18.60
2016-11-05T08:59:14.689Z,18.60
2016-11-05T09:00:11.968Z,18.60
2016-11-05T09:01:13.041Z,18.60
2016-11-05T09:02:12.060Z,18.60
2016-11-05T09:03:13.884Z,18.60
2016-11-05T09:04:13.064Z,18.60
2016-11-05T09:05:12.403Z,18.60
2016-11-05T09:06:12.086Z,18.60
2016-11-05T09:07:13.289Z,18.60
2016-11-05T09:08:12.830Z,18.60
2016-11-05T09:09:11.601Z,18.60
2016-11-05T09:10:12.590Z,18.70
2016-11-05T09:11:12.153Z,18.60
2016-11-05T09:12:12.887Z,18.70
2016-11-05T09:13:14.096Z,18.60
2016-11-05T09:14:11.289Z,18.60
2016-11-05T09:15:13.296Z,18.70
2016-11-05T09:16:09.170Z,18.70
2016-11-05T09:17:12.584Z,18.70
2016-11-05T09:18:10.152Z,18.70
2016-11-05T09:19:12.960Z,18.70
2016-11-05T09:20:12.363Z,18.70
2016-11-05T09:21:12.866Z,18.70
2016-11-05T09:22:14.002Z,18.70
2016-11-05T09:23:08.866Z,18.70
2016-11-05T09:24:12.840Z,18.70
2016-11-05T09:25:08.845Z,18.70
2016-11-05T09:26:12.729Z,18.70
2016-11-05T09:27:11.998Z,18.70
2016-11-05T09:28:12.154Z,18.70
2016-11-05T09:29:12.709Z,18.70
2016-11-05T09:30:11.191Z,18.70
2016-11-05T09:31:10.110Z,18.70
2016-11-05T09:32:12.863Z,18.70
2016-11-05T09:33:09.694Z,18.70
2016-11-05T09:34:12.436Z,18.80
2016-11-05T09:35:13.699Z,18.80
2016-11-05T09:36:11.986Z,18.80
2016-11-05T09:37:12.286Z,18.80
2016-11-05T09:38:11.218Z,18.80
2016-11-05T09:39:13.592Z,18.80
2016-11-05T09:40:13.012Z,18.80
2016-11-05T09:41:11.671Z,18.80
2016-11-05T09:42:10.102Z,18.80
2016-11-05T09:43:13.864Z,18.80
2016-11-05T09:44:12.607Z,18.80
2016-11-05T09:45:11.935Z,18.80
2016-11-05T09:46:12.574Z,18.80
2016-11-05T09:47:13.363Z,18.80
2016-11-05T09:48:12.258Z,18.80
2016-11-05T09:49:11.638Z,18.80
2016-11-05T09:50:13.092Z,18.80
2016-11-05T09:51:13.068Z,18.80
2016-11-05T09:52:14.600Z,18.80
2016-11-05T09:53:14.422Z,18.80
2016-11-05T09:54:13.701Z,18.80
2016-11-05T09:55:12.445Z,18.80
2016-11-05T09:56:11.332Z,18.80
2016-11-05T09:57:11.905Z,18.80
2016-11-05T09:58:14.092Z,18.80
2016-11-05T09:59:12.371Z,18.80
2016-11-05T10:00:13.822Z,18.80
2016-11-05T10:01:13.132Z,18.80
2016-11-05T10:02:13.025Z,18.80
2016-11-05T10:03:11.925Z,18.80
2016-11-05T10:04:12.069Z,18.80
2016-11-05T10:05:11.775Z,18.80
2016-11-05T10:06:12.935Z,18.80
2016-11-05T10:07:13.298Z,18.80
2016-11-05T10:08:09.931Z,18.80
2016-11-05T10:09:11.985Z,18.80
2016-11-05T10:10:12.267Z,18.80
2016-11-05T10:11:13.087Z,18.80
2016-11-05T10:12:08.675Z,18.80
2016-11-05T10:13:12.588Z,18.80
2016-11-05T10:14:12.541Z,18.80
2016-11-05T10:15:13.780Z,18.80
2016-11-05T10:16:13.414Z,18.80
2016-11-05T10:17:11.239Z,18.80
2016-11-05T10:18:12.253Z,18.80
2016-11-05T10:19:13.268Z,18.80
2016-11-05T10:20:12.219Z,18.80
2016-11-05T10:21:12.078Z,18.80
2016-11-05T10:22:12.387Z,18.80
2016-11-05T10:23:13.115Z,18.80
2016-11-05T10:24:11.949Z,18.80
2016-11-05T10:25:11.820Z,18.80
2016-11-05T10:26:11.970Z,18.80
2016-11-05T10:27:12.816Z,18.80
2016-11-05T10:28:12.155Z,18.80
2016-11-05T10:29:12.546Z,18.80
2016-11-05T10:30:13.792Z,18.80
2016-11-05T10:31:12.859Z,18.80
2016-11-05T10:32:12.111Z,18.80
2016-11-05T10:33:12.314Z,18.80
2016-11-05T10:34:11.865Z,18.80
2016-11-05T10:35:13.969Z,18.80
2016-11-05T10:36:11.423Z,18.80
2016-11-05T10:37:12.536Z,18.80
2016-11-05T10:38:12.429Z,18.80
2016-11-05T10:39:13.688Z,18.80
2016-11-05T10:40:12.026Z,18.80
2016-11-05T10:41:08.967Z,18.80
2016-11-05T10:42:12.300Z,18.80
2016-11-05T10:43:12.273Z,18.80
2016-11-05T10:44:12.760Z,18.80
2016-11-05T10:45:11.787Z,18.80
2016-11-05T10:46:13.701Z,18.80
2016-11-05T10:47:12.655Z,18.80
2016-11-05T10:48:12.720Z,18.80
2016-11-05T10:49:12.378Z,18.80
2016-11-05T10:50:12.959Z,18.80
2016-11-05T10:51:11.474Z,18.80
2016-11-05T10:52:11.652Z,18.80
2016-11-05T10:53:12.487Z,18.80
2016-11-05T10:54:12.678Z,18.80
2016-11-05T10:55:13.029Z,18.80
2016-11-05T10:56:12.329Z,18.80
2016-11-05T10:57:11.772Z,18.80
2016-11-05T10:58:12.438Z,18.80
2016-11-05T10:59:11.431Z,18.80
2016-11-05T11:00:09.530Z,18.80
2016-11-05T11:01:13.699Z,18.80
2016-11-05T11:02:12.539Z,18.80
2016-11-05T11:03:12.441Z,18.80
2016-11-05T11:04:12.786Z,18.80
2016-11-05T11:05:08.770Z,18.80
2016-11-05T11:06:12.535Z,18.80
2016-11-05T11:07:12.327Z,18.80
2016-11-05T11:08:12.063Z,18.80
2016-11-05T11:09:13.547Z,18.80
2016-11-05T11:10:12.561Z,18.80
2016-11-05T11:11:12.503Z,18.80
2016-11-05T11:12:12.913Z,18.80
2016-11-05T11:13:13.709Z,18.80
2016-11-05T11:14:11.815Z,18.80
2016-11-05T11:15:12.036Z,18.80
2016-11-05T11:16:12.573Z,18.80
2016-11-05T11:17:12.015Z,18.80
2016-11-05T11:18:13.143Z,18.80
2016-11-05T11:19:11.895Z,18.80
2016-11-05T11:20:11.979Z,18.80
2016-11-05T11:21:12.032Z,18.80
2016-11-05T11:22:12.927Z,18.80
2016-11-05T11:23:10.091Z,18.80
2016-11-05T11:24:13.082Z,18.80
2016-11-05T11:25:12.714Z,18.80
2016-11-05T11:26:11.720Z,18.80
2016-11-05T11:27:11.697Z,18.80
2016-11-05T11:28:13.013Z,18.80
2016-11-05T11:29:18.373Z,18.80
2016-11-05T11:30:11.212Z,18.80
2016-11-05T11:31:12.421Z,18.80
2016-11-05T11:32:12.256Z,18.80
2016-11-05T11:33:14.073Z,18.80
2016-11-05T11:34:13.076Z,18.80
2016-11-05T11:35:12.020Z,18.80
2016-11-05T11:36:12.516Z,18.80
2016-11-05T11:37:11.751Z,18.80
2016-11-05T11:38:11.665Z,18.80
2016-11-05T11:39:11.531Z,18.80
2016-11-05T11:40:12.104Z,18.80
2016-11-05T11:41:12.457Z,18.80
2016-11-05T11:42:11.379Z,18.80
2016-11-05T11:43:12.225Z,18.80
2016-11-05T11:44:09.007Z,18.80
2016-11-05T11:45:12.252Z,18.80
2016-11-05T11:46:11.798Z,18.80
2016-11-05T11:47:12.517Z,18.80
2016-11-05T11:48:12.594Z,18.80
2016-11-05T11:49:12.267Z,18.80
2016-11-05T11:50:12.375Z,18.90
2016-11-05T11:51:13.143Z,18.80
2016-11-05T11:52:11.927Z,18.80
2016-11-05T11:53:10.386Z,18.90
2016-11-05T11:54:13.350Z,18.90
2016-11-05T11:55:13.284Z,18.90
2016-11-05T11:56:11.832Z,18.90
2016-11-05T11:57:12.786Z,18.90
2016-11-05T11:58:13.101Z,18.90
2016-11-05T11:59:12.198Z,18.90
2016-11-05T12:00:12.819Z,18.90
2016-11-05T12:01:12.962Z,18.90
2016-11-05T12:02:12.458Z,18.90
2016-11-05T12:03:14.164Z,18.90
2016-11-05T12:04:09.373Z,18.90
2016-11-05T12:05:13.341Z,18.90
2016-11-05T12:06:09.966Z,18.90
2016-11-05T12:07:12.049Z,18.90
2016-11-05T12:08:13.495Z,18.90
2016-11-05T12:09:10.183Z,19.00
2016-11-05T12:10:13.516Z,19.00
2016-11-05T12:11:13.440Z,19.00
2016-11-05T12:12:11.593Z,19.00
2016-11-05T12:13:11.835Z,18.90
2016-11-05T12:14:11.123Z,18.90
2016-11-05T12:15:12.728Z,18.90
2016-11-05T12:16:11.773Z,18.90
2016-11-05T12:17:12.530Z,18.90
2016-11-05T12:18:13.015Z,18.90
2016-11-05T12:19:17.508Z,18.90
2016-11-05T12:20:11.836Z,18.90
2016-11-05T12:21:12.326Z,18.90
2016-11-05T12:22:12.804Z,18.90
2016-11-05T12:23:12.065Z,18.90
2016-11-05T12:24:12.928Z,18.90
2016-11-05T12:25:13.963Z,18.90
2016-11-05T12:26:13.036Z,18.90
2016-11-05T12:27:12.529Z,18.90
2016-11-05T12:28:12.420Z,18.90
2016-11-05T12:29:11.581Z,18.90
2016-11-05T12:30:11.469Z,18.90
2016-11-05T12:31:19.140Z,18.90
2016-11-05T12:32:12.076Z,18.90
2016-11-05T12:33:11.812Z,18.90
2016-11-05T12:34:12.271Z,18.90
2016-11-05T12:35:11.225Z,18.90
2016-11-05T12:36:10.318Z,18.90
2016-11-05T12:37:11.811Z,18.80
2016-11-05T12:38:13.052Z,18.90
2016-11-05T12:39:10.147Z,18.90
2016-11-05T12:40:13.849Z,18.80
2016-11-05T12:41:12.835Z,18.80
2016-11-05T12:42:12.557Z,18.80
2016-11-05T12:43:12.279Z,18.90
2016-11-05T12:44:11.619Z,18.90
2016-11-05T12:45:11.806Z,18.90
2016-11-05T12:46:12.571Z,18.90
2016-11-05T12:47:12.195Z,18.90
2016-11-05T12:48:12.755Z,18.90
2016-11-05T12:49:12.125Z,18.80
2016-11-05T12:50:12.158Z,18.80
2016-11-05T12:51:12.199Z,18.80
2016-11-05T12:52:11.961Z,18.80